Time;durP1;ratioP1;P1;durP2;ratioP2;P2;SDS_P1;SDS_P2;PMS_P1;PMS_P2;Temp;Humidity;BMP_temperature;BMP_pressure;BME280_temperature;BME280_humidity;BME280_pressure;Samples;Min_cycle;Max_cycle;Signal;HPM_P1;HPM_P2
2021/04/26 00:01:24;;;;;;;6.27;2.80;;;10.30;42.20;;;;;;5063735;28;20243;-86
2021/04/26 00:03:50;;;;;;;4.30;2.20;;;10.30;42.10;;;;;;5063805;28;20184;-85
2021/04/26 00:06:16;;;;;;;5.60;2.70;;;10.20;42.20;;;;;;5064383;28;20182;-86
2021/04/26 00:08:41;;;;;;;3.97;2.73;;;10.10;42.50;;;;;;5065971;28;20199;-86
2021/04/26 00:11:07;;;;;;;3.60;2.40;;;10.10;42.30;;;;;;5072399;28;20203;-86
2021/04/26 00:13:33;;;;;;;4.20;2.63;;;10.30;42.20;;;;;;5072131;28;20227;-86
2021/04/26 00:15:59;;;;;;;4.37;2.93;;;10.10;41.90;;;;;;5069510;28;20184;-85
2021/04/26 00:18:24;;;;;;;6.07;2.40;;;9.90;42.20;;;;;;5067442;28;20176;-86
2021/04/26 00:20:50;;;;;;;3.40;2.37;;;9.90;42.50;;;;;;5066503;28;20189;-86
2021/04/26 00:23:16;;;;;;;3.73;2.47;;;9.90;42.10;;;;;;5067649;28;20200;-86
2021/04/26 00:25:42;;;;;;;3.27;2.40;;;9.90;42.10;;;;;;5067884;28;20260;-86
2021/04/26 00:28:07;;;;;;;6.43;2.43;;;9.90;42.20;;;;;;5066588;28;20195;-86
2021/04/26 00:30:33;;;;;;;3.97;2.47;;;9.90;42.30;;;;;;5067653;28;20245;-86
2021/04/26 00:33:00;;;;;;;3.20;2.50;;;9.60;42.60;;;;;;5067589;28;20204;-86
2021/04/26 00:35:26;;;;;;;4.20;2.30;;;9.50;42.80;;;;;;5071770;28;20254;-87
2021/04/26 00:37:53;;;;;;;5.27;2.70;;;9.70;42.70;;;;;;5078180;28;20195;-86
2021/04/26 00:40:20;;;;;;;4.67;2.53;;;9.70;42.30;;;;;;5076682;28;20169;-86
2021/04/26 00:42:45;;;;;;;3.03;2.30;;;9.70;42.60;;;;;;5065570;28;20223;-86
2021/04/26 00:45:14;;;;;;;3.80;2.20;;;9.60;42.80;;;;;;5067311;28;20379;-86
2021/04/26 00:47:42;;;;;;;2.90;2.20;;;9.60;42.60;;;;;;5066647;28;20605;-87
2021/04/26 00:50:14;;;;;;;3.27;2.47;;;9.70;42.70;;;;;;5066714;28;20184;-86
2021/04/26 00:52:40;;;;;;;3.43;2.47;;;9.60;42.40;;;;;;5065166;28;20239;-86
2021/04/26 00:55:08;;;;;;;4.27;2.70;;;9.70;42.60;;;;;;5065704;28;20202;-86
2021/04/26 00:57:33;;;;;;;4.43;2.63;;;9.60;42.50;;;;;;5066452;28;20203;-87
2021/04/26 00:59:59;;;;;;;4.53;2.57;;;9.50;43.00;;;;;;5066598;28;20184;-87
2021/04/26 01:02:25;;;;;;;4.17;2.70;;;9.30;43.40;;;;;;5066360;28;20699;-86
2021/04/26 01:04:53;;;;;;;3.50;2.23;;;9.20;44.00;;;;;;5066616;28;20647;-86
2021/04/26 01:07:19;;;;;;;3.27;2.40;;;9.10;44.50;;;;;;5066557;28;20241;-87
2021/04/26 01:09:44;;;;;;;4.27;2.50;;;9.20;44.30;;;;;;5065647;28;20181;-86
2021/04/26 01:12:44;;;;;;;5.37;2.30;;;9.20;44.20;;;;;;5066307;28;20218;-86
2021/04/26 01:15:25;;;;;;;3.27;2.37;;;9.10;44.50;;;;;;5058528;28;20189;-87
2021/04/26 01:17:58;;;;;;;6.93;2.77;;;9.00;44.80;;;;;;5067105;28;20218;-86
2021/04/26 01:20:42;;;;;;;2.73;2.47;;;8.90;45.60;;;;;;5066848;28;20283;-86
2021/04/26 01:23:17;;;;;;;3.63;2.50;;;9.00;45.10;;;;;;5065438;28;20215;-86
2021/04/26 01:25:44;;;;;;;4.70;2.40;;;9.10;45.40;;;;;;5066309;28;20661;-87
2021/04/26 01:28:42;;;;;;;4.00;2.57;;;9.00;45.20;;;;;;5065554;28;20172;-86
2021/04/26 01:31:19;;;;;;;5.53;2.70;;;9.00;45.30;;;;;;5066258;28;20168;-86
2021/04/26 01:33:51;;;;;;;4.57;3.00;;;8.90;45.80;;;;;;5066235;28;20275;-87
2021/04/26 01:36:20;;;;;;;3.10;2.67;;;9.00;45.80;;;;;;5066036;28;20172;-87
2021/04/26 01:38:47;;;;;;;4.03;3.07;;;9.20;45.20;;;;;;5065858;28;20230;-86
2021/04/26 01:41:15;;;;;;;4.70;2.70;;;9.30;45.30;;;;;;5066177;28;20271;-86
2021/04/26 01:43:42;;;;;;;4.73;2.80;;;9.40;44.90;;;;;;5066783;28;20176;-86
2021/04/26 01:46:10;;;;;;;3.90;2.70;;;9.30;45.20;;;;;;5065601;28;20180;-86
2021/04/26 01:48:41;;;;;;;2.90;2.40;;;9.30;45.20;;;;;;5064381;28;20188;-86
2021/04/26 01:51:08;;;;;;;3.67;2.77;;;9.40;45.20;;;;;;5065620;28;20165;-87
2021/04/26 01:53:34;;;;;;;4.40;2.67;;;9.40;45.20;;;;;;5065695;28;20196;-87
2021/04/26 01:56:03;;;;;;;6.03;3.00;;;9.40;45.80;;;;;;5066081;28;20188;-86
2021/04/26 01:58:30;;;;;;;5.33;2.77;;;9.30;45.80;;;;;;5065588;28;20198;-87
2021/04/26 02:00:57;;;;;;;4.30;2.53;;;9.20;46.00;;;;;;5065357;28;20206;-87
2021/04/26 02:03:25;;;;;;;3.23;2.70;;;9.10;46.70;;;;;;5065580;28;20207;-86
2021/04/26 02:05:54;;;;;;;4.07;2.60;;;9.30;46.60;;;;;;5064155;28;20183;-87
2021/04/26 02:08:21;;;;;;;7.30;3.00;;;9.20;46.30;;;;;;5065523;28;20207;-87
2021/04/26 02:10:48;;;;;;;6.17;2.90;;;9.20;46.50;;;;;;5065728;28;20176;-85
2021/04/26 02:13:17;;;;;;;4.77;2.90;;;9.10;47.70;;;;;;5064351;28;20705;-85
2021/04/26 02:15:44;;;;;;;3.47;2.57;;;8.90;47.40;;;;;;5065226;28;20179;-86
2021/04/26 02:18:10;;;;;;;4.93;2.60;;;8.80;48.10;;;;;;5065273;28;20245;-85
2021/04/26 02:20:36;;;;;;;5.23;3.10;;;8.70;48.30;;;;;;5065593;28;20172;-86
2021/04/26 02:23:02;;;;;;;5.47;2.90;;;8.80;48.40;;;;;;5064173;28;20213;-86
2021/04/26 02:25:28;;;;;;;3.20;2.67;;;8.80;48.00;;;;;;5065056;28;20325;-86
2021/04/26 02:27:54;;;;;;;5.00;3.00;;;8.70;48.50;;;;;;5047510;28;20184;-86
2021/04/26 02:30:20;;;;;;;3.87;3.20;;;8.90;48.50;;;;;;5047083;28;20675;-86
2021/04/26 02:33:04;;;;;;;4.20;3.23;;;8.90;48.50;;;;;;5064954;28;20204;-86
2021/04/26 02:35:35;;;;;;;5.73;3.27;;;8.80;48.50;;;;;;5063597;28;20577;-86
2021/04/26 02:38:04;;;;;;;5.00;3.10;;;8.70;49.40;;;;;;5063895;28;20169;-86
2021/04/26 02:40:44;;;;;;;3.90;3.03;;;8.70;49.30;;;;;;5063931;28;20176;-88
2021/04/26 02:43:12;;;;;;;5.20;3.37;;;8.70;49.50;;;;;;5064827;28;20196;-85
2021/04/26 02:45:44;;;;;;;3.80;3.00;;;8.70;49.30;;;;;;5064825;28;20187;-85
2021/04/26 02:48:11;;;;;;;4.60;3.10;;;8.90;49.40;;;;;;5064935;28;20192;-85
2021/04/26 02:50:38;;;;;;;5.33;3.50;;;9.00;49.20;;;;;;5065139;28;20188;-85
2021/04/26 02:53:04;;;;;;;3.40;3.00;;;8.90;49.90;;;;;;5063805;28;20218;-85
2021/04/26 02:55:32;;;;;;;6.67;3.87;;;9.00;49.40;;;;;;5063555;28;20181;-85
2021/04/26 02:57:58;;;;;;;6.20;3.67;;;8.90;49.30;;;;;;5063915;28;20192;-85
2021/04/26 03:00:25;;;;;;;4.77;3.80;;;8.80;49.50;;;;;;5064714;28;20184;-87
2021/04/26 03:02:52;;;;;;;5.07;3.40;;;8.70;50.00;;;;;;5064396;28;20204;-85
2021/04/26 03:05:19;;;;;;;5.07;3.27;;;8.70;50.80;;;;;;5064384;28;20211;-86
2021/04/26 03:07:46;;;;;;;3.93;3.33;;;8.70;50.40;;;;;;5064316;28;20172;-85
2021/04/26 03:10:15;;;;;;;4.80;3.30;;;8.70;50.40;;;;;;5064251;28;20196;-86
2021/04/26 03:12:43;;;;;;;3.93;3.43;;;8.70;50.10;;;;;;5062806;28;20725;-86
2021/04/26 03:15:12;;;;;;;5.53;4.00;;;8.60;50.60;;;;;;5064218;28;20251;-86
2021/04/26 03:17:40;;;;;;;6.13;3.57;;;8.50;51.30;;;;;;5063155;28;20275;-86
2021/04/26 03:20:14;;;;;;;7.00;4.07;;;8.50;51.50;;;;;;5062979;28;20208;-86
2021/04/26 03:22:41;;;;;;;5.50;3.47;;;8.50;51.10;;;;;;5063089;28;20198;-86
2021/04/26 03:25:08;;;;;;;5.73;3.20;;;8.40;51.30;;;;;;5063388;28;20203;-86
2021/04/26 03:27:35;;;;;;;5.90;3.70;;;8.30;52.00;;;;;;5064158;28;20180;-85
2021/04/26 03:30:03;;;;;;;5.83;3.37;;;8.30;52.10;;;;;;5064351;28;20647;-86
2021/04/26 03:32:29;;;;;;;5.87;3.70;;;8.40;52.00;;;;;;5062621;28;20208;-85
2021/04/26 03:34:55;;;;;;;4.47;3.67;;;8.50;51.70;;;;;;5062586;28;20208;-85
2021/04/26 03:37:21;;;;;;;4.37;3.47;;;8.40;52.20;;;;;;5064292;28;20234;-86
2021/04/26 03:39:48;;;;;;;6.10;3.30;;;8.30;52.30;;;;;;5064173;28;20180;-88
2021/04/26 03:42:17;;;;;;;4.63;3.70;;;8.40;51.90;;;;;;5064409;28;20196;-85
2021/04/26 03:44:47;;;;;;;5.67;3.73;;;8.20;52.70;;;;;;5063915;28;20187;-86
2021/04/26 03:47:13;;;;;;;5.37;3.33;;;8.20;52.90;;;;;;5064561;28;20208;-86
2021/04/26 03:49:39;;;;;;;7.33;3.80;;;8.20;52.40;;;;;;5064040;28;20191;-86
2021/04/26 03:52:06;;;;;;;4.60;3.90;;;8.00;52.70;;;;;;5061789;28;20220;-87
2021/04/26 03:54:32;;;;;;;5.43;3.60;;;8.10;53.10;;;;;;5064091;28;20275;-86
2021/04/26 03:56:59;;;;;;;4.80;3.97;;;8.30;53.00;;;;;;5063852;28;20180;-86
2021/04/26 03:59:24;;;;;;;7.67;4.00;;;8.30;51.80;;;;;;5064297;28;20177;-86
2021/04/26 04:01:50;;;;;;;9.57;4.10;;;8.30;52.20;;;;;;5065385;28;20542;-85
2021/04/26 04:04:16;;;;;;;5.60;3.93;;;8.20;52.40;;;;;;5064264;28;20188;-86
2021/04/26 04:06:42;;;;;;;6.90;4.83;;;8.10;52.70;;;;;;5063924;28;20206;-86
2021/04/26 04:09:09;;;;;;;5.60;3.67;;;8.10;52.70;;;;;;5064428;28;20546;-86
2021/04/26 04:11:35;;;;;;;5.73;4.00;;;8.00;53.50;;;;;;5063791;28;20214;-86
2021/04/26 04:14:04;;;;;;;14.17;12.83;;;8.10;53.10;;;;;;5068241;28;20165;-88
2021/04/26 04:16:30;;;;;;;7.77;6.97;;;8.20;52.60;;;;;;5071948;28;20185;-84
2021/04/26 04:18:57;;;;;;;6.17;4.63;;;8.10;52.70;;;;;;5072558;28;20206;-86
2021/04/26 04:21:23;;;;;;;10.30;8.43;;;8.10;53.40;;;;;;5070426;28;20271;-85
2021/04/26 04:23:49;;;;;;;9.87;5.33;;;8.20;52.20;;;;;;5063616;28;20202;-86
2021/04/26 04:26:15;;;;;;;8.37;6.53;;;8.10;52.60;;;;;;5063366;28;20263;-86
2021/04/26 04:28:41;;;;;;;4.87;4.37;;;8.20;53.10;;;;;;5062110;28;20188;-85
2021/04/26 04:31:07;;;;;;;5.60;4.37;;;8.10;53.20;;;;;;5062779;28;20708;-86
2021/04/26 04:33:33;;;;;;;6.13;4.80;;;8.20;52.60;;;;;;5062834;28;20213;-86
2021/04/26 04:35:59;;;;;;;5.10;3.90;;;8.20;52.70;;;;;;5063734;28;20208;-86
2021/04/26 04:38:25;;;;;;;5.67;4.67;;;8.20;52.80;;;;;;5063393;28;20234;-86
2021/04/26 04:40:53;;;;;;;5.77;4.67;;;8.20;52.50;;;;;;5063412;28;20219;-86
2021/04/26 04:43:19;;;;;;;6.90;4.27;;;8.20;52.50;;;;;;5062880;28;20200;-86
2021/04/26 04:45:45;;;;;;;7.83;4.43;;;8.20;53.40;;;;;;5063431;28;20177;-86
2021/04/26 04:48:11;;;;;;;6.77;4.33;;;8.10;52.70;;;;;;5063174;28;20177;-86
2021/04/26 04:50:36;;;;;;;6.07;4.20;;;7.90;53.10;;;;;;5063036;28;20177;-86
2021/04/26 04:53:02;;;;;;;5.80;4.20;;;7.90;53.60;;;;;;5064652;28;20212;-86
2021/04/26 04:55:28;;;;;;;6.07;4.17;;;8.00;53.30;;;;;;5070565;28;20252;-85
2021/04/26 04:57:54;;;;;;;5.53;4.27;;;7.90;53.00;;;;;;5071336;28;20188;-86
2021/04/26 05:00:20;;;;;;;4.53;3.77;;;7.90;53.50;;;;;;5069573;28;20272;-86
2021/04/26 05:02:46;;;;;;;3.90;3.53;;;7.80;53.40;;;;;;5064127;28;20196;-86
2021/04/26 05:05:12;;;;;;;5.70;4.43;;;7.80;53.60;;;;;;5066901;28;20278;-86
2021/04/26 05:07:38;;;;;;;8.57;4.33;;;7.80;53.70;;;;;;5067043;28;20653;-86
2021/04/26 05:10:04;;;;;;;6.17;3.93;;;7.80;53.70;;;;;;5066104;28;20181;-86
2021/04/26 05:12:30;;;;;;;6.10;4.50;;;7.70;53.80;;;;;;5066286;28;20709;-85
2021/04/26 05:14:56;;;;;;;5.00;4.50;;;7.60;53.80;;;;;;5067008;28;20176;-86
2021/04/26 05:17:22;;;;;;;6.87;4.00;;;7.80;53.80;;;;;;5066751;28;20179;-86
2021/04/26 05:19:48;;;;;;;5.07;4.07;;;7.80;53.80;;;;;;5065880;28;20179;-87
2021/04/26 05:22:14;;;;;;;8.70;8.00;;;7.80;53.60;;;;;;5068633;28;20562;-86
2021/04/26 05:24:40;;;;;;;8.03;4.80;;;7.70;53.70;;;;;;5066272;28;20192;-86
2021/04/26 05:27:06;;;;;;;7.53;5.60;;;7.60;54.00;;;;;;5065726;28;20189;-86
2021/04/26 05:29:32;;;;;;;4.97;4.17;;;7.60;54.10;;;;;;5064752;28;20630;-86
2021/04/26 05:31:58;;;;;;;8.00;4.50;;;7.40;54.90;;;;;;5064120;28;20216;-86
2021/04/26 05:34:24;;;;;;;6.60;4.37;;;7.40;55.00;;;;;;5063920;28;20180;-86
2021/04/26 05:36:50;;;;;;;4.53;4.13;;;7.50;54.60;;;;;;5064342;28;20248;-86
2021/04/26 05:39:15;;;;;;;5.10;4.13;;;7.40;55.30;;;;;;5064119;28;20177;-87
2021/04/26 05:41:41;;;;;;;6.40;4.80;;;7.40;54.40;;;;;;5064967;28;20401;-86
2021/04/26 05:44:07;;;;;;;6.63;4.17;;;7.40;54.50;;;;;;5063029;28;20188;-87
2021/04/26 05:46:32;;;;;;;4.93;4.53;;;7.50;54.20;;;;;;5064250;28;20264;-87
2021/04/26 05:48:58;;;;;;;5.73;4.57;;;7.60;53.80;;;;;;5064283;28;20173;-87
2021/04/26 05:51:24;;;;;;;8.43;5.53;;;7.50;54.10;;;;;;5064053;28;20188;-87
2021/04/26 05:53:49;;;;;;;7.67;5.33;;;7.60;54.40;;;;;;5063193;28;20201;-87
2021/04/26 05:56:16;;;;;;;5.07;4.07;;;7.60;53.90;;;;;;5064224;28;20180;-87
2021/04/26 05:58:41;;;;;;;4.90;4.40;;;7.70;53.80;;;;;;5065105;28;20180;-87
2021/04/26 06:01:08;;;;;;;6.87;5.27;;;7.80;53.30;;;;;;5063587;28;20227;-86
2021/04/26 06:03:34;;;;;;;6.43;4.80;;;7.80;53.20;;;;;;5066031;28;20184;-87
2021/04/26 06:06:00;;;;;;;7.90;4.90;;;8.00;52.70;;;;;;5063066;28;20211;-87
2021/04/26 06:08:26;;;;;;;6.53;4.40;;;8.00;52.60;;;;;;5063441;28;20536;-87
2021/04/26 06:10:52;;;;;;;8.20;5.20;;;8.10;52.10;;;;;;5062612;28;20203;-86
2021/04/26 06:13:18;;;;;;;7.03;4.40;;;8.10;52.20;;;;;;5067532;28;20207;-86
2021/04/26 06:15:44;;;;;;;6.83;4.67;;;8.00;52.10;;;;;;5080342;28;20180;-86
2021/04/26 06:18:12;;;;;;;5.17;4.10;;;8.00;52.00;;;;;;5062492;28;20177;-86
2021/04/26 06:20:43;;;;;;;4.50;4.10;;;8.10;52.10;;;;;;5063408;28;20188;-86
2021/04/26 06:23:09;;;;;;;6.90;4.17;;;8.00;52.00;;;;;;5063376;28;20319;-86
2021/04/26 06:25:36;;;;;;;6.60;4.43;;;8.10;52.00;;;;;;5063663;28;20210;-86
2021/04/26 06:28:03;;;;;;;6.10;4.80;;;8.20;52.10;;;;;;5063354;28;20188;-86
2021/04/26 06:30:28;;;;;;;7.33;4.47;;;8.20;51.20;;;;;;5062913;28;20199;-87
2021/04/26 06:32:54;;;;;;;4.77;4.07;;;8.30;51.40;;;;;;5062786;28;20220;-85
2021/04/26 06:35:20;;;;;;;5.50;4.60;;;8.30;51.30;;;;;;5063734;28;20250;-87
2021/04/26 06:37:46;;;;;;;6.37;4.83;;;8.40;50.70;;;;;;5063855;28;20692;-86
2021/04/26 06:40:12;;;;;;;7.80;5.47;;;8.40;51.00;;;;;;5063137;28;20234;-85
2021/04/26 06:42:38;;;;;;;11.63;10.20;;;8.40;51.10;;;;;;5063097;28;20208;-85
2021/04/26 06:45:05;;;;;;;7.20;5.60;;;8.40;51.00;;;;;;5063526;28;20192;-86
2021/04/26 06:47:30;;;;;;;9.40;6.77;;;8.50;50.70;;;;;;5062824;28;20180;-86
2021/04/26 06:49:57;;;;;;;7.47;4.57;;;8.60;50.00;;;;;;5062777;28;20211;-86
2021/04/26 06:52:22;;;;;;;12.20;8.77;;;8.70;50.00;;;;;;5059151;28;20231;-85
2021/04/26 06:54:48;;;;;;;5.33;4.83;;;8.80;50.00;;;;;;5069638;28;20184;-86
2021/04/26 06:57:14;;;;;;;6.90;4.87;;;8.80;49.30;;;;;;5058443;28;20196;-86
2021/04/26 06:59:40;;;;;;;5.03;4.53;;;8.90;49.00;;;;;;5043610;28;20205;-85
2021/04/26 07:02:06;;;;;;;10.20;6.23;;;8.90;49.00;;;;;;5082099;28;20226;-85
2021/04/26 07:04:32;;;;;;;9.07;5.83;;;9.00;48.70;;;;;;5072123;28;20187;-87
2021/04/26 07:06:57;;;;;;;8.23;6.47;;;9.20;47.90;;;;;;5058289;28;20559;-87
2021/04/26 07:09:23;;;;;;;6.23;5.17;;;9.20;48.10;;;;;;5066619;28;20680;-86
2021/04/26 07:11:49;;;;;;;6.47;5.23;;;9.30;47.50;;;;;;5060223;28;20283;-87
2021/04/26 07:14:16;;;;;;;5.33;4.37;;;9.40;47.20;;;;;;5075435;28;20183;-87
2021/04/26 07:16:42;;;;;;;5.97;4.73;;;9.30;46.90;;;;;;5070876;28;20205;-86
2021/04/26 07:19:08;;;;;;;5.93;5.00;;;9.40;47.50;;;;;;5077632;28;20283;-87
2021/04/26 07:21:34;;;;;;;6.53;4.80;;;9.50;47.20;;;;;;5077085;28;20301;-86
2021/04/26 07:23:59;;;;;;;9.80;5.93;;;9.60;46.40;;;;;;5070384;28;20175;-86
2021/04/26 07:26:25;;;;;;;5.87;5.20;;;9.60;46.60;;;;;;5073175;28;20191;-87
2021/04/26 07:28:51;;;;;;;9.13;6.07;;;9.70;46.50;;;;;;5069943;28;20258;-87
2021/04/26 07:31:16;;;;;;;8.00;4.77;;;9.70;46.30;;;;;;5072939;28;20206;-86
2021/04/26 07:33:42;;;;;;;9.20;5.80;;;10.00;45.90;;;;;;5075160;28;20849;-87
2021/04/26 07:36:08;;;;;;;8.20;5.67;;;10.10;45.80;;;;;;5075750;28;20222;-86
2021/04/26 07:38:34;;;;;;;8.37;5.43;;;10.20;45.40;;;;;;5077454;28;20206;-86
2021/04/26 07:41:00;;;;;;;6.50;5.20;;;10.20;45.10;;;;;;5081392;28;20204;-86
2021/04/26 07:43:26;;;;;;;7.17;5.53;;;10.20;45.60;;;;;;5073453;28;20212;-86
2021/04/26 07:45:51;;;;;;;6.63;5.67;;;10.20;45.50;;;;;;5076610;28;20278;-86
2021/04/26 07:48:17;;;;;;;7.77;5.80;;;10.20;45.60;;;;;;5071882;28;20184;-87
2021/04/26 07:50:44;;;;;;;8.60;5.47;;;10.30;45.30;;;;;;5075642;28;20630;-85
2021/04/26 07:53:10;;;;;;;9.03;5.37;;;10.40;45.20;;;;;;5076381;28;20208;-85
2021/04/26 07:55:37;;;;;;;7.73;5.90;;;10.50;45.20;;;;;;5073771;28;20233;-86
2021/04/26 07:58:03;;;;;;;9.73;5.43;;;10.70;44.60;;;;;;5076889;28;20180;-86
2021/04/26 08:00:30;;;;;;;7.47;5.00;;;10.70;45.50;;;;;;5075139;28;20179;-86
2021/04/26 08:02:55;;;;;;;5.23;4.53;;;10.80;44.70;;;;;;5078022;28;20241;-88
2021/04/26 08:05:21;;;;;;;5.37;4.87;;;11.10;43.80;;;;;;5072840;28;20184;-87
2021/04/26 08:07:47;;;;;;;8.13;5.50;;;11.30;43.20;;;;;;5075469;28;20198;-84
2021/04/26 08:10:13;;;;;;;10.03;5.80;;;11.20;43.30;;;;;;5071094;28;20257;-88
2021/04/26 08:12:39;;;;;;;7.80;5.10;;;11.30;43.10;;;;;;5076434;28;20226;-87
2021/04/26 08:15:07;;;;;;;5.67;5.00;;;11.10;43.60;;;;;;5073825;28;20179;-88
2021/04/26 08:17:33;;;;;;;6.77;6.07;;;11.10;43.40;;;;;;5074517;28;20575;-87
2021/04/26 08:19:58;;;;;;;6.83;5.50;;;11.30;43.10;;;;;;5067372;28;20202;-87
2021/04/26 08:22:25;;;;;;;8.83;5.60;;;11.40;42.80;;;;;;5069709;28;20247;-87
2021/04/26 08:24:50;;;;;;;6.77;5.30;;;11.60;43.70;;;;;;5079212;22;20227;-84
2021/04/26 08:27:16;;;;;;;8.23;5.33;;;11.60;42.80;;;;;;5074285;28;20180;-84
2021/04/26 08:29:42;;;;;;;9.33;5.40;;;11.70;42.30;;;;;;5072008;28;20338;-84
2021/04/26 08:32:08;;;;;;;7.17;4.83;;;11.90;42.30;;;;;;5071711;28;20221;-83
2021/04/26 08:34:33;;;;;;;5.87;5.27;;;12.00;42.20;;;;;;5071507;28;20207;-84
2021/04/26 08:36:59;;;;;;;8.43;5.63;;;12.30;41.10;;;;;;5068203;28;20169;-84
2021/04/26 08:39:25;;;;;;;7.87;5.70;;;12.50;41.10;;;;;;5070355;28;20184;-83
2021/04/26 08:41:51;;;;;;;6.33;5.67;;;12.50;40.50;;;;;;5052991;28;20196;-84
2021/04/26 08:44:17;;;;;;;7.67;5.83;;;12.60;40.50;;;;;;5064077;28;20243;-84
2021/04/26 08:46:44;;;;;;;6.90;5.47;;;12.70;40.30;;;;;;5053718;28;20213;-84
2021/04/26 08:49:11;;;;;;;7.43;5.77;;;12.60;40.30;;;;;;5054203;28;20192;-85
2021/04/26 08:51:40;;;;;;;6.07;5.37;;;12.50;40.90;;;;;;5052802;28;20208;-85
2021/04/26 08:54:06;;;;;;;7.70;5.67;;;12.80;40.20;;;;;;5063932;28;20311;-84
2021/04/26 08:56:33;;;;;;;6.23;5.63;;;12.90;39.40;;;;;;5062952;28;20235;-84
2021/04/26 08:58:59;;;;;;;5.93;5.37;;;13.10;40.00;;;;;;5063567;28;20208;-84
2021/04/26 09:01:25;;;;;;;11.43;6.30;;;13.30;39.10;;;;;;5064006;28;20248;-84
2021/04/26 09:03:51;;;;;;;6.53;5.93;;;13.30;38.90;;;;;;5056527;28;20653;-84
2021/04/26 09:06:17;;;;;;;6.20;5.60;;;13.40;38.70;;;;;;5053537;28;20340;-85
2021/04/26 09:08:50;;;;;;;7.37;5.70;;;13.30;39.20;;;;;;5059802;28;20188;-83
2021/04/26 09:11:16;;;;;;;7.03;5.87;;;13.60;38.80;;;;;;5049561;28;20216;-84
2021/04/26 09:13:45;;;;;;;8.33;5.90;;;13.80;39.00;;;;;;5058486;28;20204;-84
2021/04/26 09:16:26;;;;;;;8.23;5.63;;;13.80;37.90;;;;;;5055911;28;20202;-84
2021/04/26 09:18:55;;;;;;;6.67;5.77;;;14.00;37.90;;;;;;5058013;28;20274;-84
2021/04/26 09:21:28;;;;;;;8.23;5.47;;;14.10;37.80;;;;;;5059189;28;20191;-85
2021/04/26 09:24:25;;;;;;;8.90;5.93;;;14.20;37.50;;;;;;5072632;28;20197;-84
2021/04/26 09:27:10;;;;;;;10.03;5.90;;;14.20;37.20;;;;;;5006609;28;20230;-84
2021/04/26 09:29:37;;;;;;;8.60;6.47;;;14.50;36.70;;;;;;5040924;28;20184;-84
2021/04/26 09:32:12;;;;;;;6.00;5.40;;;14.60;37.00;;;;;;5034817;28;20203;-84
2021/04/26 09:34:52;;;;;;;7.57;5.87;;;14.70;36.90;;;;;;5027861;28;20204;-85
2021/04/26 09:37:21;;;;;;;7.73;6.03;;;14.60;36.40;;;;;;5027031;28;20480;-84
2021/04/26 09:40:05;;;;;;;9.30;6.13;;;14.70;37.50;;;;;;5027289;28;20253;-85
2021/04/26 09:42:56;;;;;;;6.90;6.07;;;14.70;36.80;;;;;;5031314;28;20189;-84
2021/04/26 09:45:26;;;;;;;6.50;5.90;;;14.70;36.70;;;;;;5021403;28;20235;-84
2021/04/26 09:48:19;;;;;;;7.50;5.50;;;15.20;36.70;;;;;;5024586;28;20188;-85
2021/04/26 09:51:08;;;;;;;8.37;5.80;;;15.40;35.80;;;;;;5022675;28;20181;-84
2021/04/26 09:53:55;;;;;;;8.83;5.87;;;15.50;35.20;;;;;;5026541;28;20209;-84
2021/04/26 09:56:26;;;;;;;6.97;6.27;;;15.80;35.20;;;;;;5031353;28;20232;-85
2021/04/26 09:58:56;;;;;;;7.97;6.20;;;15.90;34.90;;;;;;5032624;28;20189;-84
2021/04/26 10:01:22;;;;;;;6.63;6.00;;;16.00;34.40;;;;;;5028596;28;20193;-84
2021/04/26 10:03:49;;;;;;;8.93;6.77;;;16.20;34.50;;;;;;5041293;28;20192;-84
2021/04/26 10:06:15;;;;;;;9.90;5.73;;;16.10;34.30;;;;;;5032055;28;20212;-84
2021/04/26 10:08:49;;;;;;;11.53;6.43;;;16.20;33.90;;;;;;5033586;28;20215;-85
2021/04/26 10:11:17;;;;;;;7.70;5.97;;;16.40;33.40;;;;;;5024605;28;20194;-84
2021/04/26 10:13:45;;;;;;;10.50;6.00;;;16.40;33.40;;;;;;5027920;28;20232;-84
2021/04/26 10:16:21;;;;;;;8.03;6.60;;;16.80;33.10;;;;;;5033413;28;20210;-85
2021/04/26 10:18:47;;;;;;;7.27;5.83;;;16.60;32.90;;;;;;5026158;28;20627;-83
2021/04/26 10:21:19;;;;;;;7.03;6.00;;;16.50;33.30;;;;;;5027767;28;20287;-84
2021/04/26 10:23:50;;;;;;;10.40;6.83;;;17.00;33.00;;;;;;5034103;28;20197;-85
2021/04/26 10:26:37;;;;;;;9.97;5.93;;;17.30;32.00;;;;;;5033524;28;20226;-84
2021/04/26 10:29:17;;;;;;;8.23;6.37;;;17.40;31.70;;;;;;5039507;28;20235;-84
2021/04/26 10:32:07;;;;;;;7.20;6.50;;;17.30;32.00;;;;;;5028323;28;20185;-84
2021/04/26 10:34:33;;;;;;;6.87;6.27;;;17.30;31.90;;;;;;5021892;28;20215;-85
2021/04/26 10:37:04;;;;;;;10.00;6.33;;;17.10;32.60;;;;;;5033083;28;20190;-84
2021/04/26 10:39:34;;;;;;;13.53;6.50;;;17.10;32.30;;;;;;5027245;28;20211;-84
2021/04/26 10:42:10;;;;;;;8.80;5.70;;;17.20;31.80;;;;;;5040122;28;20198;-84
2021/04/26 10:44:39;;;;;;;7.70;5.40;;;17.30;32.00;;;;;;5029670;28;20603;-84
2021/04/26 10:47:16;;;;;;;10.00;6.43;;;17.90;31.60;;;;;;5024116;28;20268;-84
2021/04/26 10:49:46;;;;;;;7.97;5.80;;;18.00;30.90;;;;;;5040105;28;20189;-85
2021/04/26 10:52:36;;;;;;;8.30;5.90;;;18.10;31.20;;;;;;5040457;28;20710;-85
2021/04/26 10:55:31;;;;;;;8.07;5.93;;;18.40;30.80;;;;;;5019743;28;20254;-84
2021/04/26 10:58:00;;;;;;;11.37;6.07;;;18.60;30.60;;;;;;5031897;28;20256;-84
2021/04/26 11:02:52;;;;;;;9.27;6.00;;;19.00;29.60;;;;;;5029399;28;20193;-84
2021/04/26 11:05:22;;;;;;;7.10;5.90;;;19.20;29.80;;;;;;5029797;28;20211;-84
2021/04/26 11:07:55;;;;;;;6.67;5.50;;;19.40;29.50;;;;;;5030246;28;20733;-84
2021/04/26 11:10:32;;;;;;;7.63;6.43;;;19.20;29.40;;;;;;5036130;28;20212;-85
2021/04/26 11:13:00;;;;;;;10.10;5.87;;;19.60;29.30;;;;;;5026025;28;20231;-85
2021/04/26 11:15:26;;;;;;;8.27;6.33;;;19.70;29.50;;;;;;5025269;28;20207;-84
2021/04/26 11:17:54;;;;;;;8.60;6.90;;;19.70;29.10;;;;;;5032154;28;20188;-85
2021/04/26 11:20:23;;;;;;;8.30;6.30;;;19.70;29.10;;;;;;5033600;28;20225;-84
2021/04/26 11:22:54;;;;;;;7.13;6.27;;;19.90;28.70;;;;;;5031642;28;20574;-85
2021/04/26 11:25:39;;;;;;;7.03;5.83;;;19.80;28.70;;;;;;5031960;28;20362;-85
2021/04/26 11:28:12;;;;;;;7.83;5.13;;;19.90;28.50;;;;;;5029604;28;20256;-84
2021/04/26 11:30:50;;;;;;;5.90;5.40;;;20.20;27.80;;;;;;5025607;28;20188;-85
2021/04/26 11:33:18;;;;;;;6.30;5.55;;;20.20;27.40;;;;;;5036810;28;20207;-84
2021/04/26 11:36:13;;;;;;;6.80;5.47;;;20.60;27.20;;;;;;5029358;28;20223;-85
2021/04/26 11:38:40;;;;;;;10.23;5.10;;;20.50;26.80;;;;;;5042493;28;20188;-84
2021/04/26 11:41:07;;;;;;;10.35;5.28;;;20.80;26.80;;;;;;5038709;28;20193;-84
2021/04/26 11:43:33;;;;;;;5.97;5.47;;;21.00;26.10;;;;;;5045109;28;20192;-84
2021/04/26 11:45:59;;;;;;;6.88;5.00;;;20.60;25.80;;;;;;5043323;28;20208;-84
2021/04/26 11:48:27;;;;;;;7.63;5.45;;;21.20;25.30;;;;;;5028803;28;20182;-84
2021/04/26 11:50:54;;;;;;;7.43;4.57;;;20.90;25.60;;;;;;5030558;28;20188;-84
2021/04/26 11:53:30;;;;;;;5.55;4.63;;;20.40;25.70;;;;;;5032591;28;20695;-85
2021/04/26 11:56:10;;;;;;;5.90;4.63;;;20.50;25.60;;;;;;5032314;28;20202;-84
2021/04/26 11:58:36;;;;;;;7.13;4.75;;;20.60;24.70;;;;;;5029632;28;20180;-84
2021/04/26 12:01:10;;;;;;;6.82;5.47;;;20.60;24.70;;;;;;5030192;28;20196;-85
2021/04/26 12:03:56;;;;;;;6.20;4.85;;;20.40;25.30;;;;;;5035755;28;20185;-84
2021/04/26 12:06:22;;;;;;;5.57;5.07;;;21.00;25.60;;;;;;5035438;28;20252;-85
2021/04/26 12:08:48;;;;;;;9.13;5.90;;;21.40;25.00;;;;;;5049738;28;20253;-85
2021/04/26 12:11:19;;;;;;;7.30;5.38;;;21.10;25.10;;;;;;5041121;28;20199;-84
2021/04/26 12:14:04;;;;;;;7.75;5.18;;;21.00;25.30;;;;;;5041139;28;20238;-85
2021/04/26 12:16:29;;;;;;;6.30;5.63;;;21.10;25.20;;;;;;5031020;28;20212;-85
2021/04/26 12:19:01;;;;;;;6.80;5.72;;;21.00;25.60;;;;;;5039725;28;20196;-84
2021/04/26 12:21:27;;;;;;;6.50;5.22;;;21.10;25.80;;;;;;5034382;28;20207;-85
2021/04/26 12:23:53;;;;;;;5.20;4.78;;;21.10;25.10;;;;;;5033751;28;20191;-85
2021/04/26 12:26:18;;;;;;;10.20;6.07;;;21.10;25.60;;;;;;5034696;28;20222;-85
2021/04/26 12:28:46;;;;;;;7.88;5.25;;;21.00;26.10;;;;;;5035903;28;20197;-85
2021/04/26 12:31:21;;;;;;;6.00;5.03;;;21.10;25.60;;;;;;5024548;28;20753;-85
2021/04/26 12:33:47;;;;;;;12.32;5.28;;;21.10;25.30;;;;;;5038379;28;20221;-84
2021/04/26 12:36:13;;;;;;;6.57;5.28;;;21.20;25.60;;;;;;5030004;28;20217;-85
2021/04/26 12:38:47;;;;;;;8.50;5.38;;;21.30;25.60;;;;;;5029915;28;20193;-85
2021/04/26 12:41:13;;;;;;;5.50;5.10;;;21.50;25.00;;;;;;5039307;28;20204;-85
2021/04/26 12:43:42;;;;;;;7.80;5.35;;;21.70;25.10;;;;;;5033740;28;20197;-84
2021/04/26 12:46:10;;;;;;;5.85;5.25;;;21.40;24.50;;;;;;5034367;28;20201;-84
2021/04/26 12:48:36;;;;;;;5.63;5.00;;;21.50;24.90;;;;;;5038318;28;20254;-85
2021/04/26 12:51:04;;;;;;;5.38;4.88;;;21.50;25.10;;;;;;5036075;28;20260;-85
2021/04/26 12:53:35;;;;;;;17.90;6.00;;;22.00;24.50;;;;;;5040216;28;20219;-85
2021/04/26 12:56:06;;;;;;;11.65;5.70;;;22.60;24.10;;;;;;5028293;28;20680;-85
2021/04/26 12:58:33;;;;;;;7.25;5.35;;;22.70;24.70;;;;;;5037065;28;20668;-85
2021/04/26 13:01:17;;;;;;;7.07;4.78;;;22.40;24.30;;;;;;5036892;28;20189;-84
2021/04/26 13:03:52;;;;;;;6.55;5.80;;;22.20;23.90;;;;;;5041860;28;20177;-85